sensor_id;sensor_type;location;lat;lon;timestamp;P1;durP1;ratioP1;P2;durP2;ratioP2
40433;SDS011;26146;51.114;5.654;2023-03-21T00:00:05;17.30;;;5.00;;
40433;SDS011;26146;51.114;5.654;2023-03-21T00:04:07;14.00;;;5.00;;
40433;SDS011;26146;51.114;5.654;2023-03-21T00:08:08;16.97;;;5.47;;
40433;SDS011;26146;51.114;5.654;2023-03-21T00:12:09;13.77;;;5.00;;
40433;SDS011;26146;51.114;5.654;2023-03-21T00:16:14;16.13;;;4.90;;
40433;SDS011;26146;51.114;5.654;2023-03-21T00:20:17;18.33;;;4.87;;
40433;SDS011;26146;51.114;5.654;2023-03-21T00:24:18;15.60;;;4.63;;
40433;SDS011;26146;51.114;5.654;2023-03-21T00:28:20;14.40;;;4.67;;
40433;SDS011;26146;51.114;5.654;2023-03-21T00:32:21;14.50;;;4.90;;
40433;SDS011;26146;51.114;5.654;2023-03-21T00:36:22;12.33;;;5.00;;
40433;SDS011;26146;51.114;5.654;2023-03-21T00:40:25;15.07;;;4.40;;
40433;SDS011;26146;51.114;5.654;2023-03-21T00:44:26;12.47;;;4.47;;
40433;SDS011;26146;51.114;5.654;2023-03-21T00:48:27;18.63;;;4.77;;
40433;SDS011;26146;51.114;5.654;2023-03-21T00:52:31;14.50;;;4.17;;
40433;SDS011;26146;51.114;5.654;2023-03-21T00:56:32;14.97;;;4.60;;
40433;SDS011;26146;51.114;5.654;2023-03-21T01:00:33;15.70;;;4.53;;
40433;SDS011;26146;51.114;5.654;2023-03-21T01:04:36;15.53;;;4.90;;
40433;SDS011;26146;51.114;5.654;2023-03-21T01:08:38;12.37;;;4.10;;
40433;SDS011;26146;51.114;5.654;2023-03-21T01:12:41;12.97;;;4.50;;
40433;SDS011;26146;51.114;5.654;2023-03-21T01:16:42;14.83;;;4.80;;
40433;SDS011;26146;51.114;5.654;2023-03-21T01:20:44;14.23;;;4.67;;
40433;SDS011;26146;51.114;5.654;2023-03-21T01:24:45;14.97;;;4.97;;
40433;SDS011;26146;51.114;5.654;2023-03-21T01:28:46;15.27;;;4.93;;
40433;SDS011;26146;51.114;5.654;2023-03-21T01:32:49;14.50;;;4.97;;
40433;SDS011;26146;51.114;5.654;2023-03-21T01:36:50;13.17;;;4.57;;
40433;SDS011;26146;51.114;5.654;2023-03-21T01:40:51;17.90;;;5.30;;
40433;SDS011;26146;51.114;5.654;2023-03-21T01:45:02;18.37;;;5.50;;
40433;SDS011;26146;51.114;5.654;2023-03-21T01:49:17;17.43;;;5.60;;
40433;SDS011;26146;51.114;5.654;2023-03-21T01:53:27;16.07;;;5.07;;
40433;SDS011;26146;51.114;5.654;2023-03-21T01:57:35;15.53;;;5.57;;
40433;SDS011;26146;51.114;5.654;2023-03-21T02:01:40;16.73;;;5.23;;
40433;SDS011;26146;51.114;5.654;2023-03-21T02:09:56;15.53;;;4.80;;
40433;SDS011;26146;51.114;5.654;2023-03-21T02:13:58;14.83;;;5.13;;
40433;SDS011;26146;51.114;5.654;2023-03-21T02:35:25;17.93;;;4.57;;
40433;SDS011;26146;51.114;5.654;2023-03-21T02:48:21;14.77;;;4.80;;
40433;SDS011;26146;51.114;5.654;2023-03-21T02:52:31;11.67;;;4.13;;
40433;SDS011;26146;51.114;5.654;2023-03-21T02:56:34;17.17;;;4.88;;
40433;SDS011;26146;51.114;5.654;2023-03-21T03:00:36;13.70;;;4.70;;
40433;SDS011;26146;51.114;5.654;2023-03-21T03:04:43;13.57;;;4.70;;
40433;SDS011;26146;51.114;5.654;2023-03-21T03:17:51;12.37;;;4.50;;
40433;SDS011;26146;51.114;5.654;2023-03-21T03:22:14;12.27;;;5.03;;
40433;SDS011;26146;51.114;5.654;2023-03-21T03:26:24;15.20;;;4.60;;
40433;SDS011;26146;51.114;5.654;2023-03-21T03:30:26;12.77;;;4.80;;
40433;SDS011;26146;51.114;5.654;2023-03-21T03:34:29;16.10;;;4.67;;
40433;SDS011;26146;51.114;5.654;2023-03-21T03:38:41;16.30;;;4.57;;
40433;SDS011;26146;51.114;5.654;2023-03-21T03:42:45;12.43;;;4.22;;
40433;SDS011;26146;51.114;5.654;2023-03-21T03:47:08;12.83;;;4.50;;
40433;SDS011;26146;51.114;5.654;2023-03-21T03:51:23;13.57;;;4.50;;
40433;SDS011;26146;51.114;5.654;2023-03-21T03:55:28;16.10;;;4.37;;
40433;SDS011;26146;51.114;5.654;2023-03-21T03:59:34;12.00;;;4.17;;
40433;SDS011;26146;51.114;5.654;2023-03-21T04:03:36;15.40;;;4.17;;
40433;SDS011;26146;51.114;5.654;2023-03-21T04:07:40;13.03;;;4.20;;
40433;SDS011;26146;51.114;5.654;2023-03-21T04:11:41;13.43;;;3.93;;
40433;SDS011;26146;51.114;5.654;2023-03-21T04:15:42;15.50;;;4.00;;
40433;SDS011;26146;51.114;5.654;2023-03-21T04:19:44;13.93;;;3.87;;
40433;SDS011;26146;51.114;5.654;2023-03-21T04:23:45;13.87;;;4.27;;
40433;SDS011;26146;51.114;5.654;2023-03-21T04:27:46;13.97;;;3.97;;
40433;SDS011;26146;51.114;5.654;2023-03-21T04:31:47;13.87;;;3.90;;
40433;SDS011;26146;51.114;5.654;2023-03-21T04:35:49;14.13;;;3.50;;
40433;SDS011;26146;51.114;5.654;2023-03-21T04:39:50;11.80;;;3.83;;
40433;SDS011;26146;51.114;5.654;2023-03-21T04:43:50;12.20;;;3.00;;
40433;SDS011;26146;51.114;5.654;2023-03-21T04:47:52;12.00;;;3.20;;
40433;SDS011;26146;51.114;5.654;2023-03-21T04:51:52;11.60;;;3.10;;
40433;SDS011;26146;51.114;5.654;2023-03-21T04:55:55;10.70;;;3.23;;
40433;SDS011;26146;51.114;5.654;2023-03-21T04:59:56;11.33;;;3.40;;
40433;SDS011;26146;51.114;5.654;2023-03-21T05:03:58;11.73;;;2.93;;
40433;SDS011;26146;51.114;5.654;2023-03-21T05:08:00;11.17;;;3.00;;
40433;SDS011;26146;51.114;5.654;2023-03-21T05:12:01;9.47;;;2.83;;
40433;SDS011;26146;51.114;5.654;2023-03-21T05:16:02;12.35;;;2.80;;
40433;SDS011;26146;51.114;5.654;2023-03-21T05:20:03;9.13;;;2.40;;
40433;SDS011;26146;51.114;5.654;2023-03-21T05:24:05;10.10;;;2.58;;
40433;SDS011;26146;51.114;5.654;2023-03-21T05:28:13;10.40;;;2.70;;
40433;SDS011;26146;51.114;5.654;2023-03-21T05:32:18;10.30;;;2.50;;
40433;SDS011;26146;51.114;5.654;2023-03-21T05:36:19;10.75;;;2.80;;
40433;SDS011;26146;51.114;5.654;2023-03-21T05:40:20;12.23;;;2.60;;
40433;SDS011;26146;51.114;5.654;2023-03-21T05:44:21;11.77;;;3.13;;
40433;SDS011;26146;51.114;5.654;2023-03-21T05:48:21;12.37;;;3.40;;
40433;SDS011;26146;51.114;5.654;2023-03-21T05:52:22;11.82;;;3.72;;
40433;SDS011;26146;51.114;5.654;2023-03-21T05:56:26;12.88;;;3.85;;
40433;SDS011;26146;51.114;5.654;2023-03-21T06:00:27;11.80;;;3.40;;
40433;SDS011;26146;51.114;5.654;2023-03-21T06:04:30;14.48;;;4.13;;
40433;SDS011;26146;51.114;5.654;2023-03-21T06:08:31;13.82;;;4.00;;
40433;SDS011;26146;51.114;5.654;2023-03-21T06:12:32;14.63;;;3.97;;
40433;SDS011;26146;51.114;5.654;2023-03-21T06:16:43;12.70;;;3.80;;
40433;SDS011;26146;51.114;5.654;2023-03-21T06:20:44;14.43;;;4.07;;
40433;SDS011;26146;51.114;5.654;2023-03-21T06:24:45;10.30;;;3.67;;
40433;SDS011;26146;51.114;5.654;2023-03-21T06:28:48;12.50;;;3.80;;
40433;SDS011;26146;51.114;5.654;2023-03-21T06:32:50;10.05;;;3.42;;
40433;SDS011;26146;51.114;5.654;2023-03-21T06:36:51;12.90;;;3.60;;
40433;SDS011;26146;51.114;5.654;2023-03-21T06:40:53;12.30;;;3.40;;
40433;SDS011;26146;51.114;5.654;2023-03-21T06:44:54;12.43;;;3.30;;
40433;SDS011;26146;51.114;5.654;2023-03-21T06:48:55;10.77;;;2.63;;
40433;SDS011;26146;51.114;5.654;2023-03-21T06:52:59;11.27;;;2.38;;
40433;SDS011;26146;51.114;5.654;2023-03-21T06:57:00;8.90;;;2.20;;
40433;SDS011;26146;51.114;5.654;2023-03-21T07:01:01;10.85;;;2.45;;
40433;SDS011;26146;51.114;5.654;2023-03-21T07:05:03;9.35;;;2.28;;
40433;SDS011;26146;51.114;5.654;2023-03-21T07:09:05;9.00;;;2.25;;
40433;SDS011;26146;51.114;5.654;2023-03-21T07:13:06;8.65;;;2.28;;
40433;SDS011;26146;51.114;5.654;2023-03-21T07:17:07;8.60;;;2.20;;
40433;SDS011;26146;51.114;5.654;2023-03-21T07:21:08;8.32;;;2.40;;
40433;SDS011;26146;51.114;5.654;2023-03-21T07:25:09;9.00;;;2.50;;
40433;SDS011;26146;51.114;5.654;2023-03-21T07:29:10;10.05;;;2.58;;
40433;SDS011;26146;51.114;5.654;2023-03-21T07:33:11;9.40;;;2.80;;
40433;SDS011;26146;51.114;5.654;2023-03-21T07:37:12;12.85;;;2.53;;
40433;SDS011;26146;51.114;5.654;2023-03-21T07:41:16;10.95;;;2.70;;
40433;SDS011;26146;51.114;5.654;2023-03-21T07:45:16;10.27;;;2.78;;
40433;SDS011;26146;51.114;5.654;2023-03-21T07:49:20;10.02;;;3.03;;
40433;SDS011;26146;51.114;5.654;2023-03-21T07:53:21;10.15;;;3.30;;
40433;SDS011;26146;51.114;5.654;2023-03-21T07:57:22;11.85;;;3.00;;
40433;SDS011;26146;51.114;5.654;2023-03-21T08:01:23;12.23;;;3.30;;
40433;SDS011;26146;51.114;5.654;2023-03-21T08:05:32;11.43;;;3.13;;
40433;SDS011;26146;51.114;5.654;2023-03-21T08:09:34;12.07;;;3.40;;
40433;SDS011;26146;51.114;5.654;2023-03-21T08:13:38;10.88;;;3.10;;
40433;SDS011;26146;51.114;5.654;2023-03-21T08:17:40;10.32;;;3.08;;
40433;SDS011;26146;51.114;5.654;2023-03-21T08:21:45;12.38;;;2.85;;
40433;SDS011;26146;51.114;5.654;2023-03-21T08:25:49;10.90;;;2.88;;
40433;SDS011;26146;51.114;5.654;2023-03-21T08:29:52;13.20;;;2.95;;
40433;SDS011;26146;51.114;5.654;2023-03-21T08:33:57;13.38;;;3.80;;
40433;SDS011;26146;51.114;5.654;2023-03-21T08:38:00;9.30;;;2.55;;
40433;SDS011;26146;51.114;5.654;2023-03-21T08:42:02;13.02;;;3.10;;
40433;SDS011;26146;51.114;5.654;2023-03-21T08:46:05;9.40;;;2.78;;
40433;SDS011;26146;51.114;5.654;2023-03-21T08:50:07;9.82;;;3.70;;
40433;SDS011;26146;51.114;5.654;2023-03-21T08:54:17;15.00;;;5.20;;
40433;SDS011;26146;51.114;5.654;2023-03-21T08:58:21;11.82;;;4.65;;
40433;SDS011;26146;51.114;5.654;2023-03-21T09:02:23;19.58;;;7.78;;
40433;SDS011;26146;51.114;5.654;2023-03-21T09:06:23;11.15;;;3.38;;
40433;SDS011;26146;51.114;5.654;2023-03-21T09:10:26;10.13;;;3.70;;
40433;SDS011;26146;51.114;5.654;2023-03-21T09:14:27;10.55;;;3.15;;
40433;SDS011;26146;51.114;5.654;2023-03-21T09:18:31;11.13;;;3.10;;
40433;SDS011;26146;51.114;5.654;2023-03-21T09:22:47;12.55;;;3.42;;
40433;SDS011;26146;51.114;5.654;2023-03-21T09:26:49;12.27;;;3.25;;
40433;SDS011;26146;51.114;5.654;2023-03-21T09:30:53;16.35;;;3.40;;
40433;SDS011;26146;51.114;5.654;2023-03-21T09:34:54;10.75;;;3.13;;
40433;SDS011;26146;51.114;5.654;2023-03-21T09:38:56;11.77;;;3.30;;
40433;SDS011;26146;51.114;5.654;2023-03-21T09:43:03;10.80;;;2.90;;
40433;SDS011;26146;51.114;5.654;2023-03-21T09:47:22;9.73;;;2.78;;
40433;SDS011;26146;51.114;5.654;2023-03-21T09:51:30;9.65;;;2.90;;
40433;SDS011;26146;51.114;5.654;2023-03-21T09:55:36;11.07;;;2.80;;
40433;SDS011;26146;51.114;5.654;2023-03-21T09:59:40;9.27;;;3.00;;
40433;SDS011;26146;51.114;5.654;2023-03-21T10:03:44;7.93;;;2.57;;
40433;SDS011;26146;51.114;5.654;2023-03-21T10:07:51;9.02;;;2.63;;
40433;SDS011;26146;51.114;5.654;2023-03-21T10:11:57;11.90;;;3.10;;
40433;SDS011;26146;51.114;5.654;2023-03-21T10:16:11;11.40;;;3.00;;
40433;SDS011;26146;51.114;5.654;2023-03-21T10:20:20;11.45;;;2.92;;
40433;SDS011;26146;51.114;5.654;2023-03-21T10:24:23;9.77;;;2.70;;
40433;SDS011;26146;51.114;5.654;2023-03-21T10:28:34;11.00;;;2.75;;
40433;SDS011;26146;51.114;5.654;2023-03-21T10:32:41;10.82;;;2.72;;
40433;SDS011;26146;51.114;5.654;2023-03-21T10:36:42;9.90;;;2.80;;
40433;SDS011;26146;51.114;5.654;2023-03-21T10:40:44;9.93;;;2.40;;
40433;SDS011;26146;51.114;5.654;2023-03-21T10:44:47;7.72;;;2.30;;
40433;SDS011;26146;51.114;5.654;2023-03-21T10:48:52;9.13;;;2.35;;
40433;SDS011;26146;51.114;5.654;2023-03-21T10:52:54;7.80;;;2.10;;
40433;SDS011;26146;51.114;5.654;2023-03-21T10:57:10;8.95;;;2.55;;
40433;SDS011;26146;51.114;5.654;2023-03-21T11:01:28;9.35;;;2.60;;
40433;SDS011;26146;51.114;5.654;2023-03-21T11:05:40;10.82;;;2.50;;
40433;SDS011;26146;51.114;5.654;2023-03-21T11:09:46;8.98;;;2.47;;
40433;SDS011;26146;51.114;5.654;2023-03-21T11:13:56;7.78;;;2.40;;
40433;SDS011;26146;51.114;5.654;2023-03-21T11:17:59;8.57;;;2.20;;
40433;SDS011;26146;51.114;5.654;2023-03-21T11:22:13;7.57;;;2.10;;
40433;SDS011;26146;51.114;5.654;2023-03-21T11:26:19;7.15;;;2.08;;
40433;SDS011;26146;51.114;5.654;2023-03-21T11:30:26;9.43;;;2.10;;
40433;SDS011;26146;51.114;5.654;2023-03-21T11:34:30;7.80;;;1.83;;
40433;SDS011;26146;51.114;5.654;2023-03-21T11:38:38;8.70;;;2.00;;
40433;SDS011;26146;51.114;5.654;2023-03-21T11:42:41;6.10;;;1.60;;
40433;SDS011;26146;51.114;5.654;2023-03-21T11:46:44;8.38;;;1.63;;
40433;SDS011;26146;51.114;5.654;2023-03-21T11:50:46;7.07;;;1.48;;
40433;SDS011;26146;51.114;5.654;2023-03-21T12:00:03;6.70;;;1.58;;
40433;SDS011;26146;51.114;5.654;2023-03-21T12:25:48;7.55;;;1.50;;
40433;SDS011;26146;51.114;5.654;2023-03-21T12:38:36;7.15;;;1.50;;
40433;SDS011;26146;51.114;5.654;2023-03-21T12:42:48;6.40;;;1.33;;
40433;SDS011;26146;51.114;5.654;2023-03-21T12:51:12;6.50;;;1.60;;
40433;SDS011;26146;51.114;5.654;2023-03-21T12:55:37;6.72;;;1.77;;
40433;SDS011;26146;51.114;5.654;2023-03-21T12:59:40;7.35;;;1.90;;
40433;SDS011;26146;51.114;5.654;2023-03-21T13:04:05;6.38;;;1.80;;
40433;SDS011;26146;51.114;5.654;2023-03-21T13:20:53;7.55;;;1.83;;
40433;SDS011;26146;51.114;5.654;2023-03-21T13:24:57;8.35;;;1.92;;
40433;SDS011;26146;51.114;5.654;2023-03-21T13:33:46;7.38;;;1.95;;
40433;SDS011;26146;51.114;5.654;2023-03-21T13:37:53;7.65;;;1.70;;
40433;SDS011;26146;51.114;5.654;2023-03-21T13:42:01;6.05;;;1.77;;
40433;SDS011;26146;51.114;5.654;2023-03-21T13:46:06;6.95;;;1.70;;
40433;SDS011;26146;51.114;5.654;2023-03-21T13:50:19;6.65;;;1.40;;
40433;SDS011;26146;51.114;5.654;2023-03-21T13:58:49;6.03;;;1.50;;
40433;SDS011;26146;51.114;5.654;2023-03-21T14:02:53;5.93;;;1.60;;
40433;SDS011;26146;51.114;5.654;2023-03-21T14:07:07;8.68;;;1.77;;
40433;SDS011;26146;51.114;5.654;2023-03-21T14:11:12;9.10;;;1.80;;
40433;SDS011;26146;51.114;5.654;2023-03-21T14:15:21;10.07;;;1.90;;
40433;SDS011;26146;51.114;5.654;2023-03-21T14:19:29;7.43;;;1.50;;
40433;SDS011;26146;51.114;5.654;2023-03-21T14:23:32;7.97;;;1.55;;
40433;SDS011;26146;51.114;5.654;2023-03-21T14:27:33;9.52;;;1.92;;
40433;SDS011;26146;51.114;5.654;2023-03-21T14:31:36;8.50;;;1.90;;
40433;SDS011;26146;51.114;5.654;2023-03-21T14:35:39;9.77;;;1.80;;
40433;SDS011;26146;51.114;5.654;2023-03-21T14:39:41;7.10;;;2.00;;
40433;SDS011;26146;51.114;5.654;2023-03-21T14:43:42;6.45;;;1.85;;
40433;SDS011;26146;51.114;5.654;2023-03-21T14:48:00;8.05;;;1.73;;
40433;SDS011;26146;51.114;5.654;2023-03-21T14:52:02;6.90;;;1.92;;
40433;SDS011;26146;51.114;5.654;2023-03-21T14:56:07;7.20;;;1.70;;
40433;SDS011;26146;51.114;5.654;2023-03-21T15:00:27;7.72;;;1.70;;
40433;SDS011;26146;51.114;5.654;2023-03-21T15:04:32;7.32;;;2.10;;
40433;SDS011;26146;51.114;5.654;2023-03-21T15:08:33;7.88;;;1.70;;
40433;SDS011;26146;51.114;5.654;2023-03-21T15:12:34;7.50;;;2.42;;
40433;SDS011;26146;51.114;5.654;2023-03-21T15:16:35;9.55;;;2.00;;
40433;SDS011;26146;51.114;5.654;2023-03-21T15:20:36;7.22;;;1.50;;
40433;SDS011;26146;51.114;5.654;2023-03-21T15:24:46;8.35;;;2.40;;
40433;SDS011;26146;51.114;5.654;2023-03-21T15:28:55;9.00;;;2.28;;
40433;SDS011;26146;51.114;5.654;2023-03-21T15:33:04;8.10;;;2.30;;
40433;SDS011;26146;51.114;5.654;2023-03-21T15:37:12;7.28;;;2.30;;
40433;SDS011;26146;51.114;5.654;2023-03-21T15:45:24;8.68;;;2.30;;
40433;SDS011;26146;51.114;5.654;2023-03-21T15:49:30;9.70;;;2.58;;
40433;SDS011;26146;51.114;5.654;2023-03-21T15:53:33;14.45;;;7.78;;
40433;SDS011;26146;51.114;5.654;2023-03-21T15:57:36;13.45;;;8.15;;
40433;SDS011;26146;51.114;5.654;2023-03-21T16:01:37;8.57;;;2.20;;
40433;SDS011;26146;51.114;5.654;2023-03-21T16:05:38;10.93;;;4.15;;
40433;SDS011;26146;51.114;5.654;2023-03-21T16:09:43;9.10;;;3.63;;
40433;SDS011;26146;51.114;5.654;2023-03-21T16:13:45;8.60;;;3.67;;
40433;SDS011;26146;51.114;5.654;2023-03-21T16:17:53;10.35;;;5.30;;
40433;SDS011;26146;51.114;5.654;2023-03-21T16:21:58;10.10;;;3.30;;
40433;SDS011;26146;51.114;5.654;2023-03-21T16:26:00;7.00;;;2.20;;
40433;SDS011;26146;51.114;5.654;2023-03-21T16:30:06;7.28;;;2.05;;
40433;SDS011;26146;51.114;5.654;2023-03-21T16:34:08;5.88;;;1.90;;
40433;SDS011;26146;51.114;5.654;2023-03-21T16:38:10;7.20;;;2.10;;
40433;SDS011;26146;51.114;5.654;2023-03-21T16:46:19;11.23;;;2.50;;
40433;SDS011;26146;51.114;5.654;2023-03-21T16:54:33;10.27;;;2.20;;
40433;SDS011;26146;51.114;5.654;2023-03-21T16:58:34;6.15;;;2.22;;
40433;SDS011;26146;51.114;5.654;2023-03-21T17:02:35;8.60;;;2.80;;
40433;SDS011;26146;51.114;5.654;2023-03-21T17:06:46;8.52;;;2.63;;
40433;SDS011;26146;51.114;5.654;2023-03-21T17:10:49;7.38;;;2.40;;
40433;SDS011;26146;51.114;5.654;2023-03-21T17:14:50;7.63;;;2.63;;
40433;SDS011;26146;51.114;5.654;2023-03-21T17:18:51;8.38;;;2.30;;
40433;SDS011;26146;51.114;5.654;2023-03-21T17:22:52;8.68;;;2.88;;
40433;SDS011;26146;51.114;5.654;2023-03-21T17:26:53;7.80;;;2.60;;
40433;SDS011;26146;51.114;5.654;2023-03-21T17:30:54;8.07;;;2.83;;
40433;SDS011;26146;51.114;5.654;2023-03-21T17:34:55;11.32;;;3.00;;
40433;SDS011;26146;51.114;5.654;2023-03-21T17:38:56;8.45;;;3.13;;
40433;SDS011;26146;51.114;5.654;2023-03-21T17:42:57;10.02;;;3.38;;
40433;SDS011;26146;51.114;5.654;2023-03-21T17:47:00;8.35;;;3.63;;
40433;SDS011;26146;51.114;5.654;2023-03-21T17:51:01;8.25;;;3.30;;
40433;SDS011;26146;51.114;5.654;2023-03-21T17:55:02;8.40;;;3.50;;
40433;SDS011;26146;51.114;5.654;2023-03-21T17:59:04;10.02;;;4.10;;
40433;SDS011;26146;51.114;5.654;2023-03-21T18:03:06;16.25;;;8.48;;
40433;SDS011;26146;51.114;5.654;2023-03-21T18:07:08;10.93;;;5.55;;
40433;SDS011;26146;51.114;5.654;2023-03-21T18:11:13;12.32;;;4.65;;
40433;SDS011;26146;51.114;5.654;2023-03-21T18:15:16;6.82;;;2.75;;
40433;SDS011;26146;51.114;5.654;2023-03-21T18:19:16;7.90;;;3.03;;
40433;SDS011;26146;51.114;5.654;2023-03-21T18:23:17;40.53;;;18.98;;
40433;SDS011;26146;51.114;5.654;2023-03-21T18:27:19;23.02;;;12.90;;
40433;SDS011;26146;51.114;5.654;2023-03-21T18:31:19;11.55;;;5.40;;
40433;SDS011;26146;51.114;5.654;2023-03-21T18:35:20;9.55;;;3.33;;
40433;SDS011;26146;51.114;5.654;2023-03-21T18:39:23;9.52;;;3.67;;
40433;SDS011;26146;51.114;5.654;2023-03-21T18:43:24;9.50;;;3.45;;
40433;SDS011;26146;51.114;5.654;2023-03-21T18:47:27;9.77;;;3.72;;
40433;SDS011;26146;51.114;5.654;2023-03-21T18:51:29;9.07;;;3.58;;
40433;SDS011;26146;51.114;5.654;2023-03-21T18:55:30;8.15;;;3.67;;
40433;SDS011;26146;51.114;5.654;2023-03-21T18:59:31;8.95;;;3.42;;
40433;SDS011;26146;51.114;5.654;2023-03-21T19:03:38;7.70;;;3.55;;
40433;SDS011;26146;51.114;5.654;2023-03-21T19:07:38;8.80;;;3.70;;
40433;SDS011;26146;51.114;5.654;2023-03-21T19:11:40;10.40;;;3.70;;
40433;SDS011;26146;51.114;5.654;2023-03-21T19:15:43;10.80;;;3.60;;
40433;SDS011;26146;51.114;5.654;2023-03-21T19:19:44;10.98;;;4.13;;
40433;SDS011;26146;51.114;5.654;2023-03-21T19:23:45;41.78;;;18.42;;
40433;SDS011;26146;51.114;5.654;2023-03-21T19:27:47;37.75;;;17.23;;
40433;SDS011;26146;51.114;5.654;2023-03-21T19:31:48;17.45;;;8.65;;
40433;SDS011;26146;51.114;5.654;2023-03-21T19:35:52;10.63;;;4.90;;
40433;SDS011;26146;51.114;5.654;2023-03-21T19:39:53;11.35;;;5.20;;
40433;SDS011;26146;51.114;5.654;2023-03-21T19:43:55;10.82;;;5.53;;
40433;SDS011;26146;51.114;5.654;2023-03-21T19:47:56;13.07;;;5.65;;
40433;SDS011;26146;51.114;5.654;2023-03-21T19:51:57;12.68;;;5.53;;
40433;SDS011;26146;51.114;5.654;2023-03-21T19:55:58;11.52;;;5.30;;
40433;SDS011;26146;51.114;5.654;2023-03-21T19:59:59;11.38;;;5.07;;
40433;SDS011;26146;51.114;5.654;2023-03-21T20:04:00;12.70;;;6.25;;
40433;SDS011;26146;51.114;5.654;2023-03-21T20:08:01;12.30;;;5.63;;
40433;SDS011;26146;51.114;5.654;2023-03-21T20:12:03;10.30;;;5.35;;
40433;SDS011;26146;51.114;5.654;2023-03-21T20:16:05;11.77;;;5.50;;
40433;SDS011;26146;51.114;5.654;2023-03-21T20:20:06;14.18;;;6.82;;
40433;SDS011;26146;51.114;5.654;2023-03-21T20:24:15;14.10;;;5.95;;
40433;SDS011;26146;51.114;5.654;2023-03-21T20:28:16;11.65;;;5.90;;
40433;SDS011;26146;51.114;5.654;2023-03-21T20:32:17;14.73;;;6.10;;
40433;SDS011;26146;51.114;5.654;2023-03-21T20:36:21;12.13;;;6.20;;
40433;SDS011;26146;51.114;5.654;2023-03-21T20:40:23;13.23;;;7.37;;
40433;SDS011;26146;51.114;5.654;2023-03-21T20:44:24;12.60;;;6.00;;
40433;SDS011;26146;51.114;5.654;2023-03-21T20:48:26;11.90;;;5.95;;
40433;SDS011;26146;51.114;5.654;2023-03-21T20:52:29;11.43;;;5.63;;
40433;SDS011;26146;51.114;5.654;2023-03-21T20:56:30;12.43;;;5.78;;
40433;SDS011;26146;51.114;5.654;2023-03-21T21:00:31;11.07;;;5.20;;
40433;SDS011;26146;51.114;5.654;2023-03-21T21:04:33;10.38;;;5.10;;
40433;SDS011;26146;51.114;5.654;2023-03-21T21:08:34;9.95;;;4.68;;
40433;SDS011;26146;51.114;5.654;2023-03-21T21:12:36;12.02;;;4.82;;
40433;SDS011;26146;51.114;5.654;2023-03-21T21:16:38;12.55;;;5.15;;
40433;SDS011;26146;51.114;5.654;2023-03-21T21:20:39;9.82;;;4.60;;
40433;SDS011;26146;51.114;5.654;2023-03-21T21:24:41;11.07;;;4.88;;
40433;SDS011;26146;51.114;5.654;2023-03-21T21:28:42;11.50;;;4.57;;
40433;SDS011;26146;51.114;5.654;2023-03-21T21:32:46;10.20;;;4.45;;
40433;SDS011;26146;51.114;5.654;2023-03-21T21:36:48;13.35;;;5.03;;
40433;SDS011;26146;51.114;5.654;2023-03-21T21:40:49;9.80;;;4.40;;
40433;SDS011;26146;51.114;5.654;2023-03-21T21:44:51;13.75;;;4.90;;
40433;SDS011;26146;51.114;5.654;2023-03-21T21:48:52;11.70;;;4.90;;
40433;SDS011;26146;51.114;5.654;2023-03-21T21:52:53;10.93;;;5.10;;
40433;SDS011;26146;51.114;5.654;2023-03-21T21:56:54;13.98;;;4.88;;
40433;SDS011;26146;51.114;5.654;2023-03-21T22:00:57;11.25;;;4.95;;
40433;SDS011;26146;51.114;5.654;2023-03-21T22:04:59;10.68;;;4.68;;
40433;SDS011;26146;51.114;5.654;2023-03-21T22:09:00;11.88;;;4.57;;
40433;SDS011;26146;51.114;5.654;2023-03-21T22:13:03;10.82;;;4.95;;
40433;SDS011;26146;51.114;5.654;2023-03-21T22:17:04;11.55;;;4.63;;
40433;SDS011;26146;51.114;5.654;2023-03-21T22:21:06;10.43;;;4.78;;
40433;SDS011;26146;51.114;5.654;2023-03-21T22:25:08;10.18;;;4.70;;
40433;SDS011;26146;51.114;5.654;2023-03-21T22:29:12;10.68;;;4.85;;
40433;SDS011;26146;51.114;5.654;2023-03-21T22:33:13;13.35;;;5.03;;
40433;SDS011;26146;51.114;5.654;2023-03-21T22:37:14;12.73;;;5.35;;
40433;SDS011;26146;51.114;5.654;2023-03-21T22:41:17;14.02;;;5.15;;
40433;SDS011;26146;51.114;5.654;2023-03-21T22:45:18;11.35;;;4.85;;
40433;SDS011;26146;51.114;5.654;2023-03-21T22:49:19;12.65;;;5.40;;
40433;SDS011;26146;51.114;5.654;2023-03-21T22:53:21;11.88;;;4.82;;
40433;SDS011;26146;51.114;5.654;2023-03-21T22:57:22;11.20;;;4.93;;
40433;SDS011;26146;51.114;5.654;2023-03-21T23:01:26;12.65;;;4.88;;
40433;SDS011;26146;51.114;5.654;2023-03-21T23:05:27;10.93;;;5.20;;
40433;SDS011;26146;51.114;5.654;2023-03-21T23:09:28;12.82;;;5.40;;
40433;SDS011;26146;51.114;5.654;2023-03-21T23:13:29;11.43;;;5.50;;
40433;SDS011;26146;51.114;5.654;2023-03-21T23:17:30;11.50;;;5.18;;
40433;SDS011;26146;51.114;5.654;2023-03-21T23:21:34;11.10;;;5.32;;
40433;SDS011;26146;51.114;5.654;2023-03-21T23:25:38;13.02;;;5.60;;
40433;SDS011;26146;51.114;5.654;2023-03-21T23:29:39;12.20;;;5.50;;
40433;SDS011;26146;51.114;5.654;2023-03-21T23:33:40;11.88;;;5.50;;
40433;SDS011;26146;51.114;5.654;2023-03-21T23:37:41;12.80;;;5.55;;
40433;SDS011;26146;51.114;5.654;2023-03-21T23:41:49;13.07;;;5.40;;
40433;SDS011;26146;51.114;5.654;2023-03-21T23:45:50;11.25;;;5.25;;
40433;SDS011;26146;51.114;5.654;2023-03-21T23:49:52;10.15;;;5.15;;
40433;SDS011;26146;51.114;5.654;2023-03-21T23:53:53;13.18;;;5.70;;
40433;SDS011;26146;51.114;5.654;2023-03-21T23:57:56;12.13;;;6.03;;
